sensor_id;sensor_type;location;lat;lon;timestamp;P1;durP1;ratioP1;P2;durP2;ratioP2
15595;SDS011;7898;48.658;9.068;2023-07-30T00:02:19;6.93;;;5.70;;
15595;SDS011;7898;48.658;9.068;2023-07-30T00:04:46;6.70;;;5.82;;
15595;SDS011;7898;48.658;9.068;2023-07-30T00:07:15;6.80;;;5.40;;
15595;SDS011;7898;48.658;9.068;2023-07-30T00:09:42;5.90;;;4.75;;
15595;SDS011;7898;48.658;9.068;2023-07-30T00:12:08;7.65;;;5.50;;
15595;SDS011;7898;48.658;9.068;2023-07-30T00:14:36;7.70;;;5.40;;
15595;SDS011;7898;48.658;9.068;2023-07-30T00:17:03;7.32;;;5.38;;
15595;SDS011;7898;48.658;9.068;2023-07-30T00:19:30;7.85;;;5.72;;
15595;SDS011;7898;48.658;9.068;2023-07-30T00:21:57;6.95;;;4.63;;
15595;SDS011;7898;48.658;9.068;2023-07-30T00:24:25;8.40;;;6.13;;
15595;SDS011;7898;48.658;9.068;2023-07-30T00:26:52;6.47;;;5.45;;
15595;SDS011;7898;48.658;9.068;2023-07-30T00:29:19;6.53;;;4.97;;
15595;SDS011;7898;48.658;9.068;2023-07-30T00:31:46;9.43;;;6.40;;
15595;SDS011;7898;48.658;9.068;2023-07-30T00:34:12;8.43;;;5.55;;
15595;SDS011;7898;48.658;9.068;2023-07-30T00:36:39;6.68;;;5.68;;
15595;SDS011;7898;48.658;9.068;2023-07-30T00:39:06;8.65;;;5.85;;
15595;SDS011;7898;48.658;9.068;2023-07-30T00:41:37;9.73;;;5.85;;
15595;SDS011;7898;48.658;9.068;2023-07-30T00:44:04;6.53;;;5.70;;
15595;SDS011;7898;48.658;9.068;2023-07-30T00:46:31;9.05;;;6.47;;
15595;SDS011;7898;48.658;9.068;2023-07-30T00:48:58;7.75;;;6.70;;
15595;SDS011;7898;48.658;9.068;2023-07-30T00:51:25;6.38;;;5.75;;
15595;SDS011;7898;48.658;9.068;2023-07-30T00:53:53;5.57;;;4.82;;
15595;SDS011;7898;48.658;9.068;2023-07-30T00:56:20;8.25;;;6.05;;
15595;SDS011;7898;48.658;9.068;2023-07-30T00:58:49;6.05;;;5.10;;
15595;SDS011;7898;48.658;9.068;2023-07-30T01:01:16;6.68;;;5.50;;
15595;SDS011;7898;48.658;9.068;2023-07-30T01:03:43;6.88;;;5.60;;
15595;SDS011;7898;48.658;9.068;2023-07-30T01:06:11;7.75;;;5.65;;
15595;SDS011;7898;48.658;9.068;2023-07-30T01:08:38;7.82;;;5.47;;
15595;SDS011;7898;48.658;9.068;2023-07-30T01:11:05;5.72;;;4.57;;
15595;SDS011;7898;48.658;9.068;2023-07-30T01:13:33;5.50;;;4.70;;
15595;SDS011;7898;48.658;9.068;2023-07-30T01:16:03;5.45;;;4.82;;
15595;SDS011;7898;48.658;9.068;2023-07-30T01:18:31;8.52;;;4.85;;
15595;SDS011;7898;48.658;9.068;2023-07-30T01:21:00;6.38;;;5.10;;
15595;SDS011;7898;48.658;9.068;2023-07-30T01:23:27;5.72;;;4.65;;
15595;SDS011;7898;48.658;9.068;2023-07-30T01:25:55;6.07;;;4.75;;
15595;SDS011;7898;48.658;9.068;2023-07-30T01:28:27;6.57;;;5.00;;
15595;SDS011;7898;48.658;9.068;2023-07-30T01:30:55;7.20;;;4.80;;
15595;SDS011;7898;48.658;9.068;2023-07-30T01:33:26;5.22;;;4.68;;
15595;SDS011;7898;48.658;9.068;2023-07-30T01:35:53;5.63;;;4.63;;
15595;SDS011;7898;48.658;9.068;2023-07-30T01:38:23;7.28;;;4.63;;
15595;SDS011;7898;48.658;9.068;2023-07-30T01:40:51;5.10;;;4.53;;
15595;SDS011;7898;48.658;9.068;2023-07-30T01:43:19;6.43;;;4.40;;
15595;SDS011;7898;48.658;9.068;2023-07-30T01:45:45;6.13;;;4.20;;
15595;SDS011;7898;48.658;9.068;2023-07-30T01:48:12;8.40;;;4.80;;
15595;SDS011;7898;48.658;9.068;2023-07-30T01:50:39;5.95;;;4.90;;
15595;SDS011;7898;48.658;9.068;2023-07-30T01:53:06;6.25;;;4.85;;
15595;SDS011;7898;48.658;9.068;2023-07-30T01:55:34;7.43;;;4.80;;
15595;SDS011;7898;48.658;9.068;2023-07-30T01:58:01;5.88;;;4.15;;
15595;SDS011;7898;48.658;9.068;2023-07-30T02:00:28;4.80;;;4.25;;
15595;SDS011;7898;48.658;9.068;2023-07-30T02:02:55;5.03;;;4.47;;
15595;SDS011;7898;48.658;9.068;2023-07-30T02:05:22;5.05;;;4.10;;
15595;SDS011;7898;48.658;9.068;2023-07-30T02:07:50;6.20;;;4.40;;
15595;SDS011;7898;48.658;9.068;2023-07-30T02:10:17;4.00;;;3.58;;
15595;SDS011;7898;48.658;9.068;2023-07-30T02:12:45;4.63;;;3.83;;
15595;SDS011;7898;48.658;9.068;2023-07-30T02:15:12;5.18;;;3.80;;
15595;SDS011;7898;48.658;9.068;2023-07-30T02:17:39;7.07;;;3.80;;
15595;SDS011;7898;48.658;9.068;2023-07-30T02:20:06;4.18;;;3.78;;
15595;SDS011;7898;48.658;9.068;2023-07-30T02:22:34;4.78;;;4.00;;
15595;SDS011;7898;48.658;9.068;2023-07-30T02:25:01;4.95;;;4.18;;
15595;SDS011;7898;48.658;9.068;2023-07-30T02:27:28;9.48;;;3.97;;
15595;SDS011;7898;48.658;9.068;2023-07-30T02:29:56;6.60;;;3.78;;
15595;SDS011;7898;48.658;9.068;2023-07-30T02:32:23;4.15;;;3.70;;
15595;SDS011;7898;48.658;9.068;2023-07-30T02:34:50;5.00;;;3.85;;
15595;SDS011;7898;48.658;9.068;2023-07-30T02:37:17;4.82;;;3.42;;
15595;SDS011;7898;48.658;9.068;2023-07-30T02:39:44;4.80;;;3.70;;
15595;SDS011;7898;48.658;9.068;2023-07-30T02:42:10;4.85;;;3.50;;
15595;SDS011;7898;48.658;9.068;2023-07-30T02:44:37;5.72;;;3.47;;
15595;SDS011;7898;48.658;9.068;2023-07-30T02:47:06;5.85;;;3.25;;
15595;SDS011;7898;48.658;9.068;2023-07-30T02:49:33;5.25;;;3.67;;
15595;SDS011;7898;48.658;9.068;2023-07-30T02:52:00;3.83;;;3.42;;
15595;SDS011;7898;48.658;9.068;2023-07-30T02:54:27;3.83;;;3.53;;
15595;SDS011;7898;48.658;9.068;2023-07-30T02:56:54;5.57;;;3.60;;
15595;SDS011;7898;48.658;9.068;2023-07-30T02:59:20;3.47;;;3.17;;
15595;SDS011;7898;48.658;9.068;2023-07-30T03:01:47;4.80;;;3.13;;
15595;SDS011;7898;48.658;9.068;2023-07-30T03:04:16;3.53;;;3.22;;
15595;SDS011;7898;48.658;9.068;2023-07-30T03:06:42;5.72;;;3.13;;
15595;SDS011;7898;48.658;9.068;2023-07-30T03:09:09;5.47;;;3.40;;
15595;SDS011;7898;48.658;9.068;2023-07-30T03:11:36;4.00;;;3.60;;
15595;SDS011;7898;48.658;9.068;2023-07-30T03:14:03;5.40;;;3.30;;
15595;SDS011;7898;48.658;9.068;2023-07-30T03:16:30;4.88;;;3.90;;
15595;SDS011;7898;48.658;9.068;2023-07-30T03:18:57;6.00;;;3.67;;
15595;SDS011;7898;48.658;9.068;2023-07-30T03:21:25;5.93;;;4.32;;
15595;SDS011;7898;48.658;9.068;2023-07-30T03:23:52;5.53;;;3.60;;
15595;SDS011;7898;48.658;9.068;2023-07-30T03:26:18;4.95;;;3.55;;
15595;SDS011;7898;48.658;9.068;2023-07-30T03:28:45;4.13;;;3.72;;
15595;SDS011;7898;48.658;9.068;2023-07-30T03:31:12;6.25;;;4.22;;
15595;SDS011;7898;48.658;9.068;2023-07-30T03:33:39;9.50;;;4.35;;
15595;SDS011;7898;48.658;9.068;2023-07-30T03:36:08;5.25;;;4.50;;
15595;SDS011;7898;48.658;9.068;2023-07-30T03:38:37;3.92;;;3.53;;
15595;SDS011;7898;48.658;9.068;2023-07-30T03:41:04;9.23;;;3.85;;
15595;SDS011;7898;48.658;9.068;2023-07-30T03:43:31;9.93;;;4.60;;
15595;SDS011;7898;48.658;9.068;2023-07-30T03:45:58;8.20;;;4.40;;
15595;SDS011;7898;48.658;9.068;2023-07-30T03:48:25;8.48;;;4.80;;
15595;SDS011;7898;48.658;9.068;2023-07-30T03:50:52;5.75;;;4.43;;
15595;SDS011;7898;48.658;9.068;2023-07-30T03:53:19;9.82;;;4.40;;
15595;SDS011;7898;48.658;9.068;2023-07-30T03:55:47;5.28;;;4.10;;
15595;SDS011;7898;48.658;9.068;2023-07-30T03:58:14;4.72;;;3.80;;
15595;SDS011;7898;48.658;9.068;2023-07-30T04:00:41;5.20;;;4.25;;
15595;SDS011;7898;48.658;9.068;2023-07-30T04:03:08;5.40;;;3.88;;
15595;SDS011;7898;48.658;9.068;2023-07-30T04:05:35;10.55;;;4.00;;
15595;SDS011;7898;48.658;9.068;2023-07-30T04:08:02;6.05;;;4.05;;
15595;SDS011;7898;48.658;9.068;2023-07-30T04:10:29;6.43;;;3.90;;
15595;SDS011;7898;48.658;9.068;2023-07-30T04:12:57;5.30;;;3.88;;
15595;SDS011;7898;48.658;9.068;2023-07-30T04:15:24;4.80;;;3.15;;
15595;SDS011;7898;48.658;9.068;2023-07-30T04:17:51;5.32;;;3.75;;
15595;SDS011;7898;48.658;9.068;2023-07-30T04:20:18;4.28;;;3.67;;
15595;SDS011;7898;48.658;9.068;2023-07-30T04:22:45;7.60;;;3.42;;
15595;SDS011;7898;48.658;9.068;2023-07-30T04:25:12;6.10;;;4.13;;
15595;SDS011;7898;48.658;9.068;2023-07-30T04:27:38;7.30;;;3.90;;
15595;SDS011;7898;48.658;9.068;2023-07-30T04:30:07;8.52;;;4.30;;
15595;SDS011;7898;48.658;9.068;2023-07-30T04:32:34;6.10;;;3.83;;
15595;SDS011;7898;48.658;9.068;2023-07-30T04:35:01;4.53;;;4.00;;
15595;SDS011;7898;48.658;9.068;2023-07-30T04:37:28;4.95;;;3.95;;
15595;SDS011;7898;48.658;9.068;2023-07-30T04:39:56;6.50;;;3.92;;
15595;SDS011;7898;48.658;9.068;2023-07-30T04:42:22;5.38;;;3.60;;
15595;SDS011;7898;48.658;9.068;2023-07-30T04:44:49;6.20;;;3.47;;
15595;SDS011;7898;48.658;9.068;2023-07-30T04:47:18;6.00;;;4.18;;
15595;SDS011;7898;48.658;9.068;2023-07-30T04:49:45;4.95;;;3.92;;
15595;SDS011;7898;48.658;9.068;2023-07-30T04:52:11;6.25;;;3.95;;
15595;SDS011;7898;48.658;9.068;2023-07-30T04:54:38;5.97;;;4.80;;
15595;SDS011;7898;48.658;9.068;2023-07-30T04:57:05;5.35;;;4.00;;
15595;SDS011;7898;48.658;9.068;2023-07-30T04:59:32;5.25;;;4.35;;
15595;SDS011;7898;48.658;9.068;2023-07-30T05:01:59;4.30;;;3.92;;
15595;SDS011;7898;48.658;9.068;2023-07-30T05:04:28;5.93;;;4.53;;
15595;SDS011;7898;48.658;9.068;2023-07-30T05:06:54;5.93;;;4.32;;
15595;SDS011;7898;48.658;9.068;2023-07-30T05:09:21;8.57;;;4.70;;
15595;SDS011;7898;48.658;9.068;2023-07-30T05:11:48;6.55;;;4.70;;
15595;SDS011;7898;48.658;9.068;2023-07-30T05:14:15;6.47;;;5.13;;
15595;SDS011;7898;48.658;9.068;2023-07-30T05:16:42;5.70;;;4.82;;
15595;SDS011;7898;48.658;9.068;2023-07-30T05:19:09;13.35;;;5.80;;
15595;SDS011;7898;48.658;9.068;2023-07-30T05:21:37;5.63;;;4.47;;
15595;SDS011;7898;48.658;9.068;2023-07-30T05:24:04;5.38;;;4.88;;
15595;SDS011;7898;48.658;9.068;2023-07-30T05:26:31;5.47;;;4.97;;
15595;SDS011;7898;48.658;9.068;2023-07-30T05:28:58;6.38;;;5.63;;
15595;SDS011;7898;48.658;9.068;2023-07-30T05:31:24;5.97;;;4.72;;
15595;SDS011;7898;48.658;9.068;2023-07-30T05:33:51;5.35;;;4.45;;
15595;SDS011;7898;48.658;9.068;2023-07-30T05:36:18;5.72;;;3.90;;
15595;SDS011;7898;48.658;9.068;2023-07-30T05:38:46;8.02;;;4.32;;
15595;SDS011;7898;48.658;9.068;2023-07-30T05:41:13;6.32;;;4.63;;
15595;SDS011;7898;48.658;9.068;2023-07-30T05:43:40;6.10;;;4.38;;
15595;SDS011;7898;48.658;9.068;2023-07-30T05:46:07;5.45;;;3.80;;
15595;SDS011;7898;48.658;9.068;2023-07-30T05:48:34;6.45;;;4.25;;
15595;SDS011;7898;48.658;9.068;2023-07-30T05:51:01;5.03;;;3.50;;
15595;SDS011;7898;48.658;9.068;2023-07-30T05:53:29;5.65;;;3.55;;
15595;SDS011;7898;48.658;9.068;2023-07-30T05:55:57;4.95;;;3.38;;
15595;SDS011;7898;48.658;9.068;2023-07-30T05:58:24;4.18;;;3.70;;
15595;SDS011;7898;48.658;9.068;2023-07-30T06:00:51;3.33;;;2.90;;
15595;SDS011;7898;48.658;9.068;2023-07-30T06:03:17;5.57;;;3.70;;
15595;SDS011;7898;48.658;9.068;2023-07-30T06:05:44;4.65;;;4.22;;
15595;SDS011;7898;48.658;9.068;2023-07-30T06:08:11;9.27;;;5.03;;
15595;SDS011;7898;48.658;9.068;2023-07-30T06:10:38;5.70;;;4.10;;
15595;SDS011;7898;48.658;9.068;2023-07-30T06:13:07;5.90;;;4.20;;
15595;SDS011;7898;48.658;9.068;2023-07-30T06:15:33;4.05;;;3.45;;
15595;SDS011;7898;48.658;9.068;2023-07-30T06:18:01;3.25;;;2.95;;
15595;SDS011;7898;48.658;9.068;2023-07-30T06:20:28;4.45;;;2.53;;
15595;SDS011;7898;48.658;9.068;2023-07-30T06:22:55;2.83;;;2.58;;
15595;SDS011;7898;48.658;9.068;2023-07-30T06:25:22;4.63;;;2.60;;
15595;SDS011;7898;48.658;9.068;2023-07-30T06:27:49;3.13;;;2.45;;
15595;SDS011;7898;48.658;9.068;2023-07-30T06:30:17;3.33;;;2.13;;
15595;SDS011;7898;48.658;9.068;2023-07-30T06:32:44;4.13;;;2.50;;
15595;SDS011;7898;48.658;9.068;2023-07-30T06:35:11;3.08;;;2.35;;
15595;SDS011;7898;48.658;9.068;2023-07-30T06:37:38;5.45;;;2.50;;
15595;SDS011;7898;48.658;9.068;2023-07-30T06:40:05;2.53;;;2.10;;
15595;SDS011;7898;48.658;9.068;2023-07-30T06:42:33;2.45;;;2.20;;
15595;SDS011;7898;48.658;9.068;2023-07-30T06:45:00;3.42;;;2.25;;
15595;SDS011;7898;48.658;9.068;2023-07-30T06:47:28;1.98;;;1.88;;
15595;SDS011;7898;48.658;9.068;2023-07-30T06:49:55;2.25;;;1.73;;
15595;SDS011;7898;48.658;9.068;2023-07-30T06:52:22;2.20;;;1.90;;
15595;SDS011;7898;48.658;9.068;2023-07-30T06:54:49;1.50;;;1.40;;
15595;SDS011;7898;48.658;9.068;2023-07-30T06:57:15;2.47;;;1.75;;
15595;SDS011;7898;48.658;9.068;2023-07-30T06:59:42;1.63;;;1.52;;
15595;SDS011;7898;48.658;9.068;2023-07-30T07:02:09;1.73;;;1.63;;
15595;SDS011;7898;48.658;9.068;2023-07-30T07:04:37;2.78;;;1.83;;
15595;SDS011;7898;48.658;9.068;2023-07-30T07:07:04;2.72;;;2.10;;
15595;SDS011;7898;48.658;9.068;2023-07-30T07:09:31;2.05;;;1.85;;
15595;SDS011;7898;48.658;9.068;2023-07-30T07:11:58;1.65;;;1.55;;
15595;SDS011;7898;48.658;9.068;2023-07-30T07:14:25;1.83;;;1.63;;
15595;SDS011;7898;48.658;9.068;2023-07-30T07:16:53;2.67;;;1.80;;
15595;SDS011;7898;48.658;9.068;2023-07-30T07:19:21;3.75;;;1.90;;
15595;SDS011;7898;48.658;9.068;2023-07-30T07:21:49;2.33;;;1.70;;
15595;SDS011;7898;48.658;9.068;2023-07-30T07:24:16;4.07;;;2.28;;
15595;SDS011;7898;48.658;9.068;2023-07-30T07:26:43;4.20;;;1.98;;
15595;SDS011;7898;48.658;9.068;2023-07-30T07:29:10;2.20;;;1.80;;
15595;SDS011;7898;48.658;9.068;2023-07-30T07:31:37;2.08;;;1.85;;
15595;SDS011;7898;48.658;9.068;2023-07-30T07:34:04;1.85;;;1.45;;
15595;SDS011;7898;48.658;9.068;2023-07-30T07:36:31;2.95;;;1.80;;
15595;SDS011;7898;48.658;9.068;2023-07-30T07:38:59;1.30;;;1.20;;
15595;SDS011;7898;48.658;9.068;2023-07-30T07:41:26;2.17;;;1.42;;
15595;SDS011;7898;48.658;9.068;2023-07-30T07:43:53;1.55;;;1.17;;
15595;SDS011;7898;48.658;9.068;2023-07-30T07:46:20;3.30;;;1.80;;
15595;SDS011;7898;48.658;9.068;2023-07-30T07:48:47;4.68;;;1.85;;
15595;SDS011;7898;48.658;9.068;2023-07-30T07:51:14;1.88;;;1.40;;
15595;SDS011;7898;48.658;9.068;2023-07-30T07:53:41;1.90;;;1.70;;
15595;SDS011;7898;48.658;9.068;2023-07-30T07:56:09;1.95;;;1.83;;
15595;SDS011;7898;48.658;9.068;2023-07-30T07:58:36;2.15;;;1.95;;
15595;SDS011;7898;48.658;9.068;2023-07-30T08:01:02;2.47;;;1.90;;
15595;SDS011;7898;48.658;9.068;2023-07-30T08:03:29;3.42;;;2.30;;
15595;SDS011;7898;48.658;9.068;2023-07-30T08:05:56;2.35;;;1.77;;
15595;SDS011;7898;48.658;9.068;2023-07-30T08:08:24;2.15;;;1.95;;
15595;SDS011;7898;48.658;9.068;2023-07-30T08:10:51;2.45;;;1.70;;
15595;SDS011;7898;48.658;9.068;2023-07-30T08:13:20;2.85;;;1.90;;
15595;SDS011;7898;48.658;9.068;2023-07-30T08:15:47;2.33;;;1.65;;
15595;SDS011;7898;48.658;9.068;2023-07-30T08:18:14;1.70;;;1.60;;
15595;SDS011;7898;48.658;9.068;2023-07-30T08:20:41;1.75;;;1.50;;
15595;SDS011;7898;48.658;9.068;2023-07-30T08:23:09;1.77;;;1.33;;
15595;SDS011;7898;48.658;9.068;2023-07-30T08:25:36;3.08;;;1.48;;
15595;SDS011;7898;48.658;9.068;2023-07-30T08:28:03;2.83;;;1.60;;
15595;SDS011;7898;48.658;9.068;2023-07-30T08:30:31;2.70;;;1.10;;
15595;SDS011;7898;48.658;9.068;2023-07-30T08:32:58;2.78;;;1.80;;
15595;SDS011;7898;48.658;9.068;2023-07-30T08:35:25;1.80;;;1.13;;
15595;SDS011;7898;48.658;9.068;2023-07-30T08:37:53;2.20;;;1.70;;
15595;SDS011;7898;48.658;9.068;2023-07-30T08:40:20;2.70;;;1.85;;
15595;SDS011;7898;48.658;9.068;2023-07-30T08:42:48;3.42;;;1.65;;
15595;SDS011;7898;48.658;9.068;2023-07-30T08:45:16;1.80;;;1.40;;
15595;SDS011;7898;48.658;9.068;2023-07-30T08:47:44;5.72;;;1.40;;
15595;SDS011;7898;48.658;9.068;2023-07-30T08:50:12;5.80;;;1.55;;
15595;SDS011;7898;48.658;9.068;2023-07-30T08:52:40;1.42;;;1.33;;
15595;SDS011;7898;48.658;9.068;2023-07-30T08:55:07;2.55;;;1.50;;
15595;SDS011;7898;48.658;9.068;2023-07-30T08:57:36;3.78;;;1.70;;
15595;SDS011;7898;48.658;9.068;2023-07-30T09:00:06;2.78;;;1.60;;
15595;SDS011;7898;48.658;9.068;2023-07-30T09:02:37;1.90;;;1.40;;
15595;SDS011;7898;48.658;9.068;2023-07-30T09:05:07;3.35;;;1.63;;
15595;SDS011;7898;48.658;9.068;2023-07-30T09:07:34;1.80;;;1.55;;
15595;SDS011;7898;48.658;9.068;2023-07-30T09:10:01;3.08;;;1.70;;
15595;SDS011;7898;48.658;9.068;2023-07-30T09:12:29;3.47;;;1.40;;
15595;SDS011;7898;48.658;9.068;2023-07-30T09:14:56;1.77;;;1.65;;
15595;SDS011;7898;48.658;9.068;2023-07-30T09:17:23;1.60;;;1.45;;
15595;SDS011;7898;48.658;9.068;2023-07-30T09:19:51;2.95;;;1.70;;
15595;SDS011;7898;48.658;9.068;2023-07-30T09:22:25;2.45;;;1.40;;
15595;SDS011;7898;48.658;9.068;2023-07-30T09:24:52;5.85;;;1.85;;
15595;SDS011;7898;48.658;9.068;2023-07-30T09:27:20;2.78;;;1.95;;
15595;SDS011;7898;48.658;9.068;2023-07-30T09:29:51;2.28;;;1.80;;
15595;SDS011;7898;48.658;9.068;2023-07-30T09:32:19;2.70;;;2.00;;
15595;SDS011;7898;48.658;9.068;2023-07-30T09:34:46;2.08;;;1.67;;
15595;SDS011;7898;48.658;9.068;2023-07-30T09:37:13;1.90;;;1.52;;
15595;SDS011;7898;48.658;9.068;2023-07-30T09:39:42;2.00;;;1.80;;
15595;SDS011;7898;48.658;9.068;2023-07-30T09:42:09;2.42;;;2.22;;
15595;SDS011;7898;48.658;9.068;2023-07-30T09:44:37;2.28;;;1.92;;
15595;SDS011;7898;48.658;9.068;2023-07-30T09:47:05;3.38;;;2.10;;
15595;SDS011;7898;48.658;9.068;2023-07-30T09:49:36;2.85;;;1.90;;
15595;SDS011;7898;48.658;9.068;2023-07-30T09:52:04;1.90;;;1.70;;
15595;SDS011;7898;48.658;9.068;2023-07-30T09:54:31;2.28;;;1.90;;
15595;SDS011;7898;48.658;9.068;2023-07-30T09:57:00;3.63;;;1.95;;
15595;SDS011;7898;48.658;9.068;2023-07-30T09:59:27;2.17;;;1.98;;
15595;SDS011;7898;48.658;9.068;2023-07-30T10:01:54;2.33;;;1.75;;
15595;SDS011;7898;48.658;9.068;2023-07-30T10:04:23;2.40;;;2.10;;
15595;SDS011;7898;48.658;9.068;2023-07-30T10:06:52;2.97;;;2.20;;
15595;SDS011;7898;48.658;9.068;2023-07-30T10:09:23;2.50;;;2.08;;
15595;SDS011;7898;48.658;9.068;2023-07-30T10:11:54;2.53;;;1.70;;
15595;SDS011;7898;48.658;9.068;2023-07-30T10:14:23;1.65;;;1.55;;
15595;SDS011;7898;48.658;9.068;2023-07-30T10:16:52;1.92;;;1.70;;
15595;SDS011;7898;48.658;9.068;2023-07-30T10:19:22;7.88;;;2.22;;
15595;SDS011;7898;48.658;9.068;2023-07-30T10:21:49;2.53;;;1.90;;
15595;SDS011;7898;48.658;9.068;2023-07-30T10:24:16;4.90;;;2.00;;
15595;SDS011;7898;48.658;9.068;2023-07-30T10:26:43;2.83;;;1.90;;
15595;SDS011;7898;48.658;9.068;2023-07-30T10:29:14;2.45;;;1.95;;
15595;SDS011;7898;48.658;9.068;2023-07-30T10:31:43;2.42;;;2.00;;
15595;SDS011;7898;48.658;9.068;2023-07-30T10:34:14;2.55;;;1.85;;
15595;SDS011;7898;48.658;9.068;2023-07-30T10:36:42;2.03;;;1.83;;
15595;SDS011;7898;48.658;9.068;2023-07-30T10:39:11;2.60;;;2.22;;
15595;SDS011;7898;48.658;9.068;2023-07-30T10:41:39;3.58;;;1.65;;
15595;SDS011;7898;48.658;9.068;2023-07-30T10:44:06;4.22;;;2.28;;
15595;SDS011;7898;48.658;9.068;2023-07-30T10:46:33;2.45;;;2.10;;
15595;SDS011;7898;48.658;9.068;2023-07-30T10:49:03;2.75;;;2.05;;
15595;SDS011;7898;48.658;9.068;2023-07-30T10:51:31;2.22;;;2.03;;
15595;SDS011;7898;48.658;9.068;2023-07-30T10:53:59;3.35;;;2.25;;
15595;SDS011;7898;48.658;9.068;2023-07-30T10:56:26;3.20;;;1.98;;
15595;SDS011;7898;48.658;9.068;2023-07-30T10:58:53;3.63;;;2.30;;
15595;SDS011;7898;48.658;9.068;2023-07-30T11:01:22;3.00;;;2.20;;
15595;SDS011;7898;48.658;9.068;2023-07-30T11:03:51;2.65;;;2.05;;
15595;SDS011;7898;48.658;9.068;2023-07-30T11:06:23;2.05;;;1.85;;
15595;SDS011;7898;48.658;9.068;2023-07-30T11:08:51;3.15;;;1.77;;
15595;SDS011;7898;48.658;9.068;2023-07-30T11:11:18;3.47;;;1.88;;
15595;SDS011;7898;48.658;9.068;2023-07-30T11:13:45;3.55;;;1.88;;
15595;SDS011;7898;48.658;9.068;2023-07-30T11:16:14;4.95;;;1.80;;
15595;SDS011;7898;48.658;9.068;2023-07-30T11:18:41;2.63;;;1.67;;
15595;SDS011;7898;48.658;9.068;2023-07-30T11:21:12;3.10;;;2.00;;
15595;SDS011;7898;48.658;9.068;2023-07-30T11:23:41;3.28;;;1.80;;
15595;SDS011;7898;48.658;9.068;2023-07-30T11:26:15;2.17;;;1.70;;
15595;SDS011;7898;48.658;9.068;2023-07-30T11:28:43;2.40;;;2.05;;
15595;SDS011;7898;48.658;9.068;2023-07-30T11:31:11;3.22;;;2.10;;
15595;SDS011;7898;48.658;9.068;2023-07-30T11:33:40;2.33;;;2.13;;
15595;SDS011;7898;48.658;9.068;2023-07-30T11:36:08;3.25;;;1.90;;
15595;SDS011;7898;48.658;9.068;2023-07-30T11:38:37;3.63;;;1.90;;
15595;SDS011;7898;48.658;9.068;2023-07-30T11:41:06;3.10;;;1.98;;
15595;SDS011;7898;48.658;9.068;2023-07-30T11:43:36;3.72;;;2.00;;
15595;SDS011;7898;48.658;9.068;2023-07-30T11:46:07;3.90;;;2.10;;
15595;SDS011;7898;48.658;9.068;2023-07-30T11:48:35;2.33;;;1.95;;
15595;SDS011;7898;48.658;9.068;2023-07-30T11:51:02;3.03;;;2.28;;
15595;SDS011;7898;48.658;9.068;2023-07-30T11:53:44;1.90;;;1.70;;
15595;SDS011;7898;48.658;9.068;2023-07-30T11:56:21;2.47;;;2.00;;
15595;SDS011;7898;48.658;9.068;2023-07-30T11:58:49;2.42;;;1.95;;
15595;SDS011;7898;48.658;9.068;2023-07-30T12:01:17;2.00;;;1.80;;
15595;SDS011;7898;48.658;9.068;2023-07-30T12:03:44;3.05;;;2.00;;
15595;SDS011;7898;48.658;9.068;2023-07-30T12:06:12;2.40;;;2.13;;
15595;SDS011;7898;48.658;9.068;2023-07-30T12:08:39;7.88;;;2.33;;
15595;SDS011;7898;48.658;9.068;2023-07-30T12:11:06;2.25;;;2.05;;
15595;SDS011;7898;48.658;9.068;2023-07-30T12:13:43;4.95;;;2.88;;
15595;SDS011;7898;48.658;9.068;2023-07-30T12:16:11;3.28;;;2.20;;
15595;SDS011;7898;48.658;9.068;2023-07-30T12:18:38;3.00;;;2.10;;
15595;SDS011;7898;48.658;9.068;2023-07-30T12:21:06;2.30;;;2.10;;
15595;SDS011;7898;48.658;9.068;2023-07-30T12:23:35;2.50;;;2.30;;
15595;SDS011;7898;48.658;9.068;2023-07-30T12:26:02;4.68;;;2.30;;
15595;SDS011;7898;48.658;9.068;2023-07-30T12:28:30;2.28;;;2.08;;
15595;SDS011;7898;48.658;9.068;2023-07-30T12:30:59;2.85;;;2.38;;
15595;SDS011;7898;48.658;9.068;2023-07-30T12:33:26;2.30;;;2.10;;
15595;SDS011;7898;48.658;9.068;2023-07-30T12:35:53;2.67;;;2.00;;
15595;SDS011;7898;48.658;9.068;2023-07-30T12:38:20;2.97;;;2.17;;
15595;SDS011;7898;48.658;9.068;2023-07-30T12:40:46;3.00;;;2.40;;
15595;SDS011;7898;48.658;9.068;2023-07-30T12:43:13;2.70;;;2.05;;
15595;SDS011;7898;48.658;9.068;2023-07-30T12:45:40;3.60;;;2.38;;
15595;SDS011;7898;48.658;9.068;2023-07-30T12:48:08;3.47;;;1.98;;
15595;SDS011;7898;48.658;9.068;2023-07-30T12:50:35;2.85;;;2.05;;
15595;SDS011;7898;48.658;9.068;2023-07-30T12:53:02;3.97;;;2.15;;
15595;SDS011;7898;48.658;9.068;2023-07-30T12:55:29;3.35;;;2.00;;
15595;SDS011;7898;48.658;9.068;2023-07-30T12:57:56;2.47;;;2.03;;
15595;SDS011;7898;48.658;9.068;2023-07-30T13:00:23;2.28;;;1.90;;
15595;SDS011;7898;48.658;9.068;2023-07-30T13:02:50;2.20;;;2.00;;
15595;SDS011;7898;48.658;9.068;2023-07-30T13:05:21;2.40;;;2.20;;
15595;SDS011;7898;48.658;9.068;2023-07-30T13:07:48;2.80;;;1.98;;
15595;SDS011;7898;48.658;9.068;2023-07-30T13:10:15;2.80;;;2.17;;
15595;SDS011;7898;48.658;9.068;2023-07-30T13:12:42;2.47;;;2.20;;
15595;SDS011;7898;48.658;9.068;2023-07-30T13:15:09;2.70;;;2.05;;
15595;SDS011;7898;48.658;9.068;2023-07-30T13:17:36;3.75;;;2.55;;
15595;SDS011;7898;48.658;9.068;2023-07-30T13:20:04;6.22;;;2.50;;
15595;SDS011;7898;48.658;9.068;2023-07-30T13:22:33;3.35;;;2.10;;
15595;SDS011;7898;48.658;9.068;2023-07-30T13:25:00;3.92;;;2.20;;
15595;SDS011;7898;48.658;9.068;2023-07-30T13:27:27;4.85;;;2.20;;
15595;SDS011;7898;48.658;9.068;2023-07-30T13:29:54;2.60;;;2.10;;
15595;SDS011;7898;48.658;9.068;2023-07-30T13:32:20;4.28;;;2.45;;
15595;SDS011;7898;48.658;9.068;2023-07-30T13:34:47;4.03;;;2.42;;
15595;SDS011;7898;48.658;9.068;2023-07-30T13:37:14;2.83;;;2.20;;
15595;SDS011;7898;48.658;9.068;2023-07-30T13:39:42;2.30;;;1.83;;
15595;SDS011;7898;48.658;9.068;2023-07-30T13:42:09;3.63;;;1.90;;
15595;SDS011;7898;48.658;9.068;2023-07-30T13:44:36;3.40;;;2.20;;
15595;SDS011;7898;48.658;9.068;2023-07-30T13:47:03;4.43;;;2.10;;
15595;SDS011;7898;48.658;9.068;2023-07-30T13:49:30;3.60;;;2.10;;
15595;SDS011;7898;48.658;9.068;2023-07-30T13:51:57;3.67;;;2.40;;
15595;SDS011;7898;48.658;9.068;2023-07-30T13:54:24;2.20;;;1.77;;
15595;SDS011;7898;48.658;9.068;2023-07-30T13:56:52;2.60;;;2.20;;
15595;SDS011;7898;48.658;9.068;2023-07-30T13:59:19;1.98;;;1.75;;
15595;SDS011;7898;48.658;9.068;2023-07-30T14:01:46;3.55;;;2.33;;
15595;SDS011;7898;48.658;9.068;2023-07-30T14:04:13;2.35;;;1.92;;
15595;SDS011;7898;48.658;9.068;2023-07-30T14:06:39;4.40;;;2.05;;
15595;SDS011;7898;48.658;9.068;2023-07-30T14:09:06;2.50;;;1.90;;
15595;SDS011;7898;48.658;9.068;2023-07-30T14:11:33;2.85;;;2.15;;
15595;SDS011;7898;48.658;9.068;2023-07-30T14:14:02;3.40;;;1.80;;
15595;SDS011;7898;48.658;9.068;2023-07-30T14:16:29;2.72;;;1.80;;
15595;SDS011;7898;48.658;9.068;2023-07-30T14:18:56;3.40;;;2.20;;
15595;SDS011;7898;48.658;9.068;2023-07-30T14:21:23;2.65;;;1.90;;
15595;SDS011;7898;48.658;9.068;2023-07-30T14:23:50;4.25;;;2.10;;
15595;SDS011;7898;48.658;9.068;2023-07-30T14:26:17;6.53;;;1.95;;
15595;SDS011;7898;48.658;9.068;2023-07-30T14:28:44;3.20;;;1.80;;
15595;SDS011;7898;48.658;9.068;2023-07-30T14:31:12;4.50;;;2.30;;
15595;SDS011;7898;48.658;9.068;2023-07-30T14:33:39;4.00;;;2.10;;
15595;SDS011;7898;48.658;9.068;2023-07-30T14:36:06;4.45;;;1.95;;
15595;SDS011;7898;48.658;9.068;2023-07-30T14:38:36;4.70;;;1.95;;
15595;SDS011;7898;48.658;9.068;2023-07-30T14:41:03;3.60;;;2.05;;
15595;SDS011;7898;48.658;9.068;2023-07-30T14:43:31;4.13;;;2.30;;
15595;SDS011;7898;48.658;9.068;2023-07-30T14:45:57;5.68;;;2.08;;
15595;SDS011;7898;48.658;9.068;2023-07-30T14:48:26;3.78;;;2.25;;
15595;SDS011;7898;48.658;9.068;2023-07-30T14:50:53;2.83;;;2.05;;
15595;SDS011;7898;48.658;9.068;2023-07-30T14:53:20;2.42;;;1.90;;
15595;SDS011;7898;48.658;9.068;2023-07-30T14:55:47;5.15;;;1.95;;
15595;SDS011;7898;48.658;9.068;2023-07-30T14:58:14;3.60;;;2.10;;
15595;SDS011;7898;48.658;9.068;2023-07-30T15:00:41;7.10;;;2.17;;
15595;SDS011;7898;48.658;9.068;2023-07-30T15:03:08;4.68;;;2.13;;